Flagler, Colorado
Current Conditions -  °F | °C
As of 6:55 PM on Monday 20 Oct 2014 (Local Time) from KLIC Reporting Station
Clear Clear  
Wind Chill: 55°   Ceiling: Unl
Heat Index: 55°   Visibility: 10mi
Dew Point: 38°   Wind: 10mph
Humidity: 53%   Direction: 160°SSE
Pressure: 30.14"   Gusts: NA
Location:  39.29°N, 103.07°W
Report Text: KLIC 210055Z AUTO 16009KT 10SM CLR 13/03 A3014 RMK AO2 SLP185 T01280033
Loading
Personal Weather Stations






























Interactive Weather Map
Tropical Storm Tracking
New forecast layout! Learn more

10-Day Weather Forecast

Advertisements
Track Severe Weather on mobile